sensor_id;sensor_type;location;lat;lon;timestamp;temperature;humidity
7427;DHT22;3755;59.316;18.092;2023-02-26T00:00:41;-2.80;99.90
7427;DHT22;3755;59.316;18.092;2023-02-26T00:03:11;-2.80;99.90
7427;DHT22;3755;59.316;18.092;2023-02-26T00:05:38;-2.80;99.90
7427;DHT22;3755;59.316;18.092;2023-02-26T00:08:05;-2.70;99.90
7427;DHT22;3755;59.316;18.092;2023-02-26T00:10:32;-2.70;99.90
7427;DHT22;3755;59.316;18.092;2023-02-26T00:13:02;-2.70;99.90
7427;DHT22;3755;59.316;18.092;2023-02-26T00:15:29;-2.60;99.90
7427;DHT22;3755;59.316;18.092;2023-02-26T00:18:00;-2.60;99.90
7427;DHT22;3755;59.316;18.092;2023-02-26T00:20:30;-2.60;99.90
7427;DHT22;3755;59.316;18.092;2023-02-26T00:22:59;-2.60;99.90
7427;DHT22;3755;59.316;18.092;2023-02-26T00:25:26;-2.50;99.90
7427;DHT22;3755;59.316;18.092;2023-02-26T00:27:54;-2.50;99.90
7427;DHT22;3755;59.316;18.092;2023-02-26T00:30:23;-2.50;99.90
7427;DHT22;3755;59.316;18.092;2023-02-26T00:32:51;-2.40;99.90
7427;DHT22;3755;59.316;18.092;2023-02-26T00:35:19;-2.40;99.90
7427;DHT22;3755;59.316;18.092;2023-02-26T00:38:02;-2.40;99.90
7427;DHT22;3755;59.316;18.092;2023-02-26T00:40:37;-2.40;99.90
7427;DHT22;3755;59.316;18.092;2023-02-26T00:43:08;-2.40;99.90
7427;DHT22;3755;59.316;18.092;2023-02-26T00:45:44;-2.30;99.90
7427;DHT22;3755;59.316;18.092;2023-02-26T00:48:34;-2.30;99.90
7427;DHT22;3755;59.316;18.092;2023-02-26T00:51:11;-2.30;99.90
7427;DHT22;3755;59.316;18.092;2023-02-26T00:53:43;-2.30;99.90
7427;DHT22;3755;59.316;18.092;2023-02-26T00:56:13;-2.30;99.90
7427;DHT22;3755;59.316;18.092;2023-02-26T00:58:40;-2.30;99.90
7427;DHT22;3755;59.316;18.092;2023-02-26T01:01:10;-2.30;99.90
7427;DHT22;3755;59.316;18.092;2023-02-26T01:03:38;-2.30;99.90
7427;DHT22;3755;59.316;18.092;2023-02-26T01:06:10;-2.30;99.90
7427;DHT22;3755;59.316;18.092;2023-02-26T01:08:46;-2.20;99.90
7427;DHT22;3755;59.316;18.092;2023-02-26T01:11:16;-2.20;99.90
7427;DHT22;3755;59.316;18.092;2023-02-26T01:13:45;-2.30;99.90
7427;DHT22;3755;59.316;18.092;2023-02-26T01:16:19;-2.30;99.90
7427;DHT22;3755;59.316;18.092;2023-02-26T01:18:51;-2.30;99.90
7427;DHT22;3755;59.316;18.092;2023-02-26T01:21:24;-2.30;99.90
7427;DHT22;3755;59.316;18.092;2023-02-26T01:23:54;-2.30;99.90
7427;DHT22;3755;59.316;18.092;2023-02-26T01:26:25;-2.40;99.90
7427;DHT22;3755;59.316;18.092;2023-02-26T01:28:53;-2.40;99.90
7427;DHT22;3755;59.316;18.092;2023-02-26T01:31:33;-2.40;99.90
7427;DHT22;3755;59.316;18.092;2023-02-26T01:34:05;-2.40;99.90
7427;DHT22;3755;59.316;18.092;2023-02-26T01:36:39;-2.40;99.90
7427;DHT22;3755;59.316;18.092;2023-02-26T01:39:15;-2.40;99.90
7427;DHT22;3755;59.316;18.092;2023-02-26T01:41:48;-2.50;99.90
7427;DHT22;3755;59.316;18.092;2023-02-26T01:44:22;-2.50;99.90
7427;DHT22;3755;59.316;18.092;2023-02-26T01:47:05;-2.20;99.90
7427;DHT22;3755;59.316;18.092;2023-02-26T01:49:37;-2.20;99.90
7427;DHT22;3755;59.316;18.092;2023-02-26T01:52:05;-2.50;99.90
7427;DHT22;3755;59.316;18.092;2023-02-26T01:54:34;-2.50;99.90
7427;DHT22;3755;59.316;18.092;2023-02-26T01:57:04;-2.50;99.90
7427;DHT22;3755;59.316;18.092;2023-02-26T01:59:35;-2.50;99.90
7427;DHT22;3755;59.316;18.092;2023-02-26T02:02:06;-2.50;99.90
7427;DHT22;3755;59.316;18.092;2023-02-26T02:04:34;-2.60;99.90
7427;DHT22;3755;59.316;18.092;2023-02-26T02:07:03;-2.50;99.90
7427;DHT22;3755;59.316;18.092;2023-02-26T02:09:30;-2.50;99.90
7427;DHT22;3755;59.316;18.092;2023-02-26T02:12:13;-2.40;99.90
7427;DHT22;3755;59.316;18.092;2023-02-26T02:14:55;-2.40;99.90
7427;DHT22;3755;59.316;18.092;2023-02-26T02:17:36;-2.30;99.90
7427;DHT22;3755;59.316;18.092;2023-02-26T02:20:26;-2.30;99.90
7427;DHT22;3755;59.316;18.092;2023-02-26T02:23:10;-2.30;99.90
7427;DHT22;3755;59.316;18.092;2023-02-26T02:28:41;-2.10;99.90
7427;DHT22;3755;59.316;18.092;2023-02-26T02:31:16;-2.00;99.90
7427;DHT22;3755;59.316;18.092;2023-02-26T02:33:48;-2.00;99.90
7427;DHT22;3755;59.316;18.092;2023-02-26T02:36:22;-1.90;99.90
7427;DHT22;3755;59.316;18.092;2023-02-26T02:38:54;-1.90;99.90
7427;DHT22;3755;59.316;18.092;2023-02-26T02:41:27;-1.90;99.90
7427;DHT22;3755;59.316;18.092;2023-02-26T02:43:59;-1.80;99.90
7427;DHT22;3755;59.316;18.092;2023-02-26T02:46:30;-1.80;99.90
7427;DHT22;3755;59.316;18.092;2023-02-26T02:49:00;-1.80;99.90
7427;DHT22;3755;59.316;18.092;2023-02-26T02:51:32;-1.80;99.90
7427;DHT22;3755;59.316;18.092;2023-02-26T02:54:03;-1.70;99.90
7427;DHT22;3755;59.316;18.092;2023-02-26T02:56:34;-1.80;99.90
7427;DHT22;3755;59.316;18.092;2023-02-26T02:59:11;-1.80;99.90
7427;DHT22;3755;59.316;18.092;2023-02-26T03:01:44;-1.80;99.90
7427;DHT22;3755;59.316;18.092;2023-02-26T03:04:13;-1.80;99.90
7427;DHT22;3755;59.316;18.092;2023-02-26T03:06:42;-1.80;99.90
7427;DHT22;3755;59.316;18.092;2023-02-26T03:09:11;-1.80;99.90
7427;DHT22;3755;59.316;18.092;2023-02-26T03:11:39;-1.80;99.90
7427;DHT22;3755;59.316;18.092;2023-02-26T03:14:07;-1.80;99.90
7427;DHT22;3755;59.316;18.092;2023-02-26T03:16:52;-1.80;99.90
7427;DHT22;3755;59.316;18.092;2023-02-26T03:19:28;-1.70;99.90
7427;DHT22;3755;59.316;18.092;2023-02-26T03:22:02;-1.70;99.90
7427;DHT22;3755;59.316;18.092;2023-02-26T03:24:36;-1.80;99.90
7427;DHT22;3755;59.316;18.092;2023-02-26T03:27:11;-1.80;99.90
7427;DHT22;3755;59.316;18.092;2023-02-26T03:29:46;-1.90;99.90
7427;DHT22;3755;59.316;18.092;2023-02-26T03:32:36;-1.90;99.90
7427;DHT22;3755;59.316;18.092;2023-02-26T03:35:10;-2.00;99.90
7427;DHT22;3755;59.316;18.092;2023-02-26T03:37:41;-2.00;99.90
7427;DHT22;3755;59.316;18.092;2023-02-26T03:40:14;-2.10;99.90
7427;DHT22;3755;59.316;18.092;2023-02-26T03:42:46;-2.20;99.90
7427;DHT22;3755;59.316;18.092;2023-02-26T03:45:18;-2.30;99.90
7427;DHT22;3755;59.316;18.092;2023-02-26T03:47:50;-2.30;99.90
7427;DHT22;3755;59.316;18.092;2023-02-26T03:50:23;-2.30;99.90
7427;DHT22;3755;59.316;18.092;2023-02-26T03:52:53;-2.30;99.90
7427;DHT22;3755;59.316;18.092;2023-02-26T03:55:24;-2.30;99.90
7427;DHT22;3755;59.316;18.092;2023-02-26T03:57:53;-2.30;99.90
7427;DHT22;3755;59.316;18.092;2023-02-26T04:00:21;-2.30;99.90
7427;DHT22;3755;59.316;18.092;2023-02-26T04:02:58;-2.30;99.90
7427;DHT22;3755;59.316;18.092;2023-02-26T04:05:27;-2.30;99.90
7427;DHT22;3755;59.316;18.092;2023-02-26T04:07:56;-2.30;99.90
7427;DHT22;3755;59.316;18.092;2023-02-26T04:10:28;-2.30;99.90
7427;DHT22;3755;59.316;18.092;2023-02-26T04:12:58;-2.30;99.90
7427;DHT22;3755;59.316;18.092;2023-02-26T04:15:25;-2.30;99.90
7427;DHT22;3755;59.316;18.092;2023-02-26T04:17:55;-2.30;99.90
7427;DHT22;3755;59.316;18.092;2023-02-26T04:20:22;-2.40;99.90
7427;DHT22;3755;59.316;18.092;2023-02-26T04:22:50;-2.40;99.90
7427;DHT22;3755;59.316;18.092;2023-02-26T04:25:17;-2.40;99.90
7427;DHT22;3755;59.316;18.092;2023-02-26T04:27:45;-2.40;99.90
7427;DHT22;3755;59.316;18.092;2023-02-26T04:30:12;-2.30;99.90
7427;DHT22;3755;59.316;18.092;2023-02-26T04:32:39;-2.40;99.90
7427;DHT22;3755;59.316;18.092;2023-02-26T04:35:08;-2.40;99.90
7427;DHT22;3755;59.316;18.092;2023-02-26T04:37:36;-2.50;99.90
7427;DHT22;3755;59.316;18.092;2023-02-26T04:40:04;-2.50;99.90
7427;DHT22;3755;59.316;18.092;2023-02-26T04:42:31;-2.60;99.90
7427;DHT22;3755;59.316;18.092;2023-02-26T04:44:59;-2.60;99.90
7427;DHT22;3755;59.316;18.092;2023-02-26T04:47:26;-2.70;99.90
7427;DHT22;3755;59.316;18.092;2023-02-26T04:49:53;-2.90;99.90
7427;DHT22;3755;59.316;18.092;2023-02-26T04:52:22;-2.70;99.90
7427;DHT22;3755;59.316;18.092;2023-02-26T04:54:49;-2.80;99.90
7427;DHT22;3755;59.316;18.092;2023-02-26T04:57:16;-2.80;99.90
7427;DHT22;3755;59.316;18.092;2023-02-26T04:59:43;-2.80;99.90
7427;DHT22;3755;59.316;18.092;2023-02-26T05:02:10;-2.80;99.90
7427;DHT22;3755;59.316;18.092;2023-02-26T05:04:38;-2.80;99.90
7427;DHT22;3755;59.316;18.092;2023-02-26T05:07:05;-2.70;99.90
7427;DHT22;3755;59.316;18.092;2023-02-26T05:09:33;-2.70;99.90
7427;DHT22;3755;59.316;18.092;2023-02-26T05:12:01;-2.70;99.90
7427;DHT22;3755;59.316;18.092;2023-02-26T05:14:28;-2.70;99.90
7427;DHT22;3755;59.316;18.092;2023-02-26T05:16:55;-2.70;99.90
7427;DHT22;3755;59.316;18.092;2023-02-26T05:19:23;-2.70;99.90
7427;DHT22;3755;59.316;18.092;2023-02-26T05:21:50;-2.70;99.90
7427;DHT22;3755;59.316;18.092;2023-02-26T05:24:17;-2.70;99.90
7427;DHT22;3755;59.316;18.092;2023-02-26T05:26:46;-2.70;99.90
7427;DHT22;3755;59.316;18.092;2023-02-26T05:29:13;-2.70;99.90
7427;DHT22;3755;59.316;18.092;2023-02-26T05:31:40;-2.70;99.90
7427;DHT22;3755;59.316;18.092;2023-02-26T05:34:08;-2.70;99.90
7427;DHT22;3755;59.316;18.092;2023-02-26T05:36:35;-2.70;99.90
7427;DHT22;3755;59.316;18.092;2023-02-26T05:39:02;-2.70;99.90
7427;DHT22;3755;59.316;18.092;2023-02-26T05:41:30;-2.70;99.90
7427;DHT22;3755;59.316;18.092;2023-02-26T05:43:58;-2.70;99.90
7427;DHT22;3755;59.316;18.092;2023-02-26T05:46:27;-2.60;99.90
7427;DHT22;3755;59.316;18.092;2023-02-26T05:48:54;-2.60;99.90
7427;DHT22;3755;59.316;18.092;2023-02-26T05:51:21;-2.60;99.90
7427;DHT22;3755;59.316;18.092;2023-02-26T05:53:49;-2.50;99.90
7427;DHT22;3755;59.316;18.092;2023-02-26T05:56:16;-2.50;99.90
7427;DHT22;3755;59.316;18.092;2023-02-26T05:58:43;-2.50;99.90
7427;DHT22;3755;59.316;18.092;2023-02-26T06:01:12;-2.40;99.90
7427;DHT22;3755;59.316;18.092;2023-02-26T06:03:39;-2.40;99.90
7427;DHT22;3755;59.316;18.092;2023-02-26T06:06:09;-2.40;99.90
7427;DHT22;3755;59.316;18.092;2023-02-26T06:08:36;-2.40;99.90
7427;DHT22;3755;59.316;18.092;2023-02-26T06:11:04;-2.30;99.90
7427;DHT22;3755;59.316;18.092;2023-02-26T06:13:32;-2.30;99.90
7427;DHT22;3755;59.316;18.092;2023-02-26T06:15:59;-2.40;99.90
7427;DHT22;3755;59.316;18.092;2023-02-26T06:18:29;-2.30;99.90
7427;DHT22;3755;59.316;18.092;2023-02-26T06:20:58;-2.30;99.90
7427;DHT22;3755;59.316;18.092;2023-02-26T06:23:39;-2.30;99.90
7427;DHT22;3755;59.316;18.092;2023-02-26T06:26:07;-2.30;99.90
7427;DHT22;3755;59.316;18.092;2023-02-26T06:28:46;-2.30;99.90
7427;DHT22;3755;59.316;18.092;2023-02-26T06:31:13;-2.20;99.90
7427;DHT22;3755;59.316;18.092;2023-02-26T06:33:42;-2.20;99.90
7427;DHT22;3755;59.316;18.092;2023-02-26T06:36:23;-2.20;99.90
7427;DHT22;3755;59.316;18.092;2023-02-26T06:38:50;-2.20;99.90
7427;DHT22;3755;59.316;18.092;2023-02-26T06:41:17;-2.30;99.90
7427;DHT22;3755;59.316;18.092;2023-02-26T06:43:52;-2.30;99.90
7427;DHT22;3755;59.316;18.092;2023-02-26T06:46:19;-2.20;99.90
7427;DHT22;3755;59.316;18.092;2023-02-26T06:48:48;-2.20;99.90
7427;DHT22;3755;59.316;18.092;2023-02-26T06:51:15;-2.20;99.90
7427;DHT22;3755;59.316;18.092;2023-02-26T06:53:43;-2.20;99.90
7427;DHT22;3755;59.316;18.092;2023-02-26T06:56:13;-2.20;99.90
7427;DHT22;3755;59.316;18.092;2023-02-26T06:58:40;-2.20;99.90
7427;DHT22;3755;59.316;18.092;2023-02-26T07:01:08;-2.10;99.90
7427;DHT22;3755;59.316;18.092;2023-02-26T07:03:35;-2.10;99.90
7427;DHT22;3755;59.316;18.092;2023-02-26T07:06:06;-2.00;99.90
7427;DHT22;3755;59.316;18.092;2023-02-26T07:08:34;-2.10;99.90
7427;DHT22;3755;59.316;18.092;2023-02-26T07:11:02;-2.10;99.90
7427;DHT22;3755;59.316;18.092;2023-02-26T07:13:29;-2.10;99.90
7427;DHT22;3755;59.316;18.092;2023-02-26T07:15:57;-2.10;99.90
7427;DHT22;3755;59.316;18.092;2023-02-26T07:18:24;-2.10;99.90
7427;DHT22;3755;59.316;18.092;2023-02-26T07:20:52;-2.10;99.90
7427;DHT22;3755;59.316;18.092;2023-02-26T07:23:22;-2.10;99.90
7427;DHT22;3755;59.316;18.092;2023-02-26T07:25:49;-2.20;99.90
7427;DHT22;3755;59.316;18.092;2023-02-26T07:28:18;-2.20;99.90
7427;DHT22;3755;59.316;18.092;2023-02-26T07:30:49;-2.20;99.90
7427;DHT22;3755;59.316;18.092;2023-02-26T07:33:17;-2.20;99.90
7427;DHT22;3755;59.316;18.092;2023-02-26T07:35:48;-2.20;99.90
7427;DHT22;3755;59.316;18.092;2023-02-26T07:38:17;-2.10;99.90
7427;DHT22;3755;59.316;18.092;2023-02-26T07:40:49;-2.10;99.90
7427;DHT22;3755;59.316;18.092;2023-02-26T07:43:17;-2.00;99.90
7427;DHT22;3755;59.316;18.092;2023-02-26T07:45:45;-2.00;99.90
7427;DHT22;3755;59.316;18.092;2023-02-26T07:48:15;-1.90;99.90
7427;DHT22;3755;59.316;18.092;2023-02-26T07:50:43;-2.00;99.90
7427;DHT22;3755;59.316;18.092;2023-02-26T07:53:10;-1.80;99.90
7427;DHT22;3755;59.316;18.092;2023-02-26T07:55:38;-1.70;99.90
7427;DHT22;3755;59.316;18.092;2023-02-26T07:58:10;-1.70;99.90
7427;DHT22;3755;59.316;18.092;2023-02-26T08:00:38;-1.60;99.90
7427;DHT22;3755;59.316;18.092;2023-02-26T08:03:08;-1.60;99.90
7427;DHT22;3755;59.316;18.092;2023-02-26T08:05:48;-1.70;99.90
7427;DHT22;3755;59.316;18.092;2023-02-26T08:08:16;-1.50;99.90
7427;DHT22;3755;59.316;18.092;2023-02-26T08:10:43;-1.40;99.90
7427;DHT22;3755;59.316;18.092;2023-02-26T08:13:20;-1.20;99.90
7427;DHT22;3755;59.316;18.092;2023-02-26T08:15:57;-1.50;99.90
7427;DHT22;3755;59.316;18.092;2023-02-26T08:18:27;-1.40;99.90
7427;DHT22;3755;59.316;18.092;2023-02-26T08:20:58;-1.40;99.90
7427;DHT22;3755;59.316;18.092;2023-02-26T08:23:28;-1.40;99.90
7427;DHT22;3755;59.316;18.092;2023-02-26T08:26:00;-1.20;99.90
7427;DHT22;3755;59.316;18.092;2023-02-26T08:28:29;-1.20;99.90
7427;DHT22;3755;59.316;18.092;2023-02-26T08:30:58;-1.20;99.90
7427;DHT22;3755;59.316;18.092;2023-02-26T08:33:26;-1.10;99.90
7427;DHT22;3755;59.316;18.092;2023-02-26T08:35:57;-1.10;99.90
7427;DHT22;3755;59.316;18.092;2023-02-26T08:38:40;-1.00;99.90
7427;DHT22;3755;59.316;18.092;2023-02-26T08:41:08;-0.90;99.90
7427;DHT22;3755;59.316;18.092;2023-02-26T08:43:37;-0.80;99.90
7427;DHT22;3755;59.316;18.092;2023-02-26T08:46:04;-0.70;99.90
7427;DHT22;3755;59.316;18.092;2023-02-26T08:48:33;-0.50;99.90
7427;DHT22;3755;59.316;18.092;2023-02-26T08:51:00;-0.50;99.90
7427;DHT22;3755;59.316;18.092;2023-02-26T08:53:28;-0.50;99.90
7427;DHT22;3755;59.316;18.092;2023-02-26T08:55:56;-0.50;99.90
7427;DHT22;3755;59.316;18.092;2023-02-26T08:58:23;-0.50;99.90
7427;DHT22;3755;59.316;18.092;2023-02-26T09:00:53;-0.50;99.90
7427;DHT22;3755;59.316;18.092;2023-02-26T09:03:21;-0.50;99.90
7427;DHT22;3755;59.316;18.092;2023-02-26T09:05:49;-0.40;99.90
7427;DHT22;3755;59.316;18.092;2023-02-26T09:08:18;-0.30;99.90
7427;DHT22;3755;59.316;18.092;2023-02-26T09:10:47;-0.30;99.90
7427;DHT22;3755;59.316;18.092;2023-02-26T09:13:14;-0.50;99.90
7427;DHT22;3755;59.316;18.092;2023-02-26T09:15:42;-0.20;99.90
7427;DHT22;3755;59.316;18.092;2023-02-26T09:18:12;-0.10;99.90
7427;DHT22;3755;59.316;18.092;2023-02-26T09:20:44;-0.10;99.90
7427;DHT22;3755;59.316;18.092;2023-02-26T09:23:11;-0.10;99.90
7427;DHT22;3755;59.316;18.092;2023-02-26T09:25:40;0.00;99.90
7427;DHT22;3755;59.316;18.092;2023-02-26T09:28:08;0.00;99.90
7427;DHT22;3755;59.316;18.092;2023-02-26T09:30:36;0.00;99.90
7427;DHT22;3755;59.316;18.092;2023-02-26T09:33:04;0.20;99.90
7427;DHT22;3755;59.316;18.092;2023-02-26T09:35:36;0.20;99.90
7427;DHT22;3755;59.316;18.092;2023-02-26T09:38:06;0.20;99.90
7427;DHT22;3755;59.316;18.092;2023-02-26T09:40:40;0.20;99.90
7427;DHT22;3755;59.316;18.092;2023-02-26T09:43:26;0.20;99.90
7427;DHT22;3755;59.316;18.092;2023-02-26T09:45:56;0.20;99.90
7427;DHT22;3755;59.316;18.092;2023-02-26T09:48:27;0.20;99.90
7427;DHT22;3755;59.316;18.092;2023-02-26T09:51:02;0.30;99.90
7427;DHT22;3755;59.316;18.092;2023-02-26T09:53:45;0.00;99.90
7427;DHT22;3755;59.316;18.092;2023-02-26T09:56:17;0.40;99.90
7427;DHT22;3755;59.316;18.092;2023-02-26T09:58:47;0.40;99.90
7427;DHT22;3755;59.316;18.092;2023-02-26T10:01:24;0.50;99.90
7427;DHT22;3755;59.316;18.092;2023-02-26T10:04:01;0.50;99.90
7427;DHT22;3755;59.316;18.092;2023-02-26T10:06:40;0.50;99.90
7427;DHT22;3755;59.316;18.092;2023-02-26T10:09:27;0.60;99.90
7427;DHT22;3755;59.316;18.092;2023-02-26T10:11:59;0.60;99.90
7427;DHT22;3755;59.316;18.092;2023-02-26T10:14:36;0.70;99.90
7427;DHT22;3755;59.316;18.092;2023-02-26T10:17:10;0.70;99.90
7427;DHT22;3755;59.316;18.092;2023-02-26T10:19:43;0.70;99.90
7427;DHT22;3755;59.316;18.092;2023-02-26T10:22:19;0.50;99.90
7427;DHT22;3755;59.316;18.092;2023-02-26T10:24:51;0.50;99.90
7427;DHT22;3755;59.316;18.092;2023-02-26T10:27:33;0.60;99.90
7427;DHT22;3755;59.316;18.092;2023-02-26T10:30:07;0.80;99.90
7427;DHT22;3755;59.316;18.092;2023-02-26T10:32:40;0.90;99.90
7427;DHT22;3755;59.316;18.092;2023-02-26T10:35:12;1.00;99.90
7427;DHT22;3755;59.316;18.092;2023-02-26T10:37:50;1.00;99.90
7427;DHT22;3755;59.316;18.092;2023-02-26T10:40:23;1.20;99.90
7427;DHT22;3755;59.316;18.092;2023-02-26T10:42:56;1.20;99.90
7427;DHT22;3755;59.316;18.092;2023-02-26T10:45:38;1.30;99.90
7427;DHT22;3755;59.316;18.092;2023-02-26T10:48:16;1.30;99.90
7427;DHT22;3755;59.316;18.092;2023-02-26T10:51:09;1.30;99.90
7427;DHT22;3755;59.316;18.092;2023-02-26T10:53:42;1.40;99.90
7427;DHT22;3755;59.316;18.092;2023-02-26T10:56:14;1.50;99.90
7427;DHT22;3755;59.316;18.092;2023-02-26T10:58:44;1.50;99.90
7427;DHT22;3755;59.316;18.092;2023-02-26T11:01:15;1.50;99.90
7427;DHT22;3755;59.316;18.092;2023-02-26T11:03:47;1.40;99.90
7427;DHT22;3755;59.316;18.092;2023-02-26T11:06:19;1.50;99.90
7427;DHT22;3755;59.316;18.092;2023-02-26T11:08:55;1.50;99.90
7427;DHT22;3755;59.316;18.092;2023-02-26T11:11:41;1.50;99.90
7427;DHT22;3755;59.316;18.092;2023-02-26T11:14:09;1.50;99.90
7427;DHT22;3755;59.316;18.092;2023-02-26T11:16:42;1.50;99.90
7427;DHT22;3755;59.316;18.092;2023-02-26T11:19:13;1.60;99.90
7427;DHT22;3755;59.316;18.092;2023-02-26T11:21:45;1.60;99.90
7427;DHT22;3755;59.316;18.092;2023-02-26T11:24:20;1.50;99.90
7427;DHT22;3755;59.316;18.092;2023-02-26T11:26:54;1.60;99.90
7427;DHT22;3755;59.316;18.092;2023-02-26T11:29:24;1.50;99.90
7427;DHT22;3755;59.316;18.092;2023-02-26T11:31:55;1.60;99.90
7427;DHT22;3755;59.316;18.092;2023-02-26T11:34:26;1.50;99.90
7427;DHT22;3755;59.316;18.092;2023-02-26T11:36:59;1.40;99.90
7427;DHT22;3755;59.316;18.092;2023-02-26T11:39:32;1.40;99.90
7427;DHT22;3755;59.316;18.092;2023-02-26T11:42:16;1.50;99.90
7427;DHT22;3755;59.316;18.092;2023-02-26T11:44:50;1.60;99.90
7427;DHT22;3755;59.316;18.092;2023-02-26T11:47:26;1.60;99.90
7427;DHT22;3755;59.316;18.092;2023-02-26T11:50:13;1.60;99.90
7427;DHT22;3755;59.316;18.092;2023-02-26T11:52:44;1.50;99.90
7427;DHT22;3755;59.316;18.092;2023-02-26T11:55:21;1.50;99.90
7427;DHT22;3755;59.316;18.092;2023-02-26T11:57:54;1.60;99.90
7427;DHT22;3755;59.316;18.092;2023-02-26T12:00:29;1.70;99.90
7427;DHT22;3755;59.316;18.092;2023-02-26T12:03:04;1.70;99.90
7427;DHT22;3755;59.316;18.092;2023-02-26T12:05:40;1.80;99.90
7427;DHT22;3755;59.316;18.092;2023-02-26T12:08:16;1.70;99.90
7427;DHT22;3755;59.316;18.092;2023-02-26T12:10:52;1.70;99.90
7427;DHT22;3755;59.316;18.092;2023-02-26T12:13:29;1.80;99.90
7427;DHT22;3755;59.316;18.092;2023-02-26T12:16:06;1.80;99.90
7427;DHT22;3755;59.316;18.092;2023-02-26T12:18:54;1.80;99.90
7427;DHT22;3755;59.316;18.092;2023-02-26T12:21:38;1.70;99.90
7427;DHT22;3755;59.316;18.092;2023-02-26T12:24:27;1.70;99.90
7427;DHT22;3755;59.316;18.092;2023-02-26T12:27:08;1.80;99.90
7427;DHT22;3755;59.316;18.092;2023-02-26T12:29:48;1.70;99.90
7427;DHT22;3755;59.316;18.092;2023-02-26T12:32:31;1.70;99.90
7427;DHT22;3755;59.316;18.092;2023-02-26T12:38:18;1.80;99.90
7427;DHT22;3755;59.316;18.092;2023-02-26T12:41:21;2.00;99.90
7427;DHT22;3755;59.316;18.092;2023-02-26T12:43:53;2.10;99.90
7427;DHT22;3755;59.316;18.092;2023-02-26T12:46:52;2.20;99.90
7427;DHT22;3755;59.316;18.092;2023-02-26T12:49:42;2.10;99.90
7427;DHT22;3755;59.316;18.092;2023-02-26T12:55:17;2.20;99.90
7427;DHT22;3755;59.316;18.092;2023-02-26T12:58:03;2.20;99.90
7427;DHT22;3755;59.316;18.092;2023-02-26T13:00:45;2.20;99.90
7427;DHT22;3755;59.316;18.092;2023-02-26T13:03:33;2.30;99.90
7427;DHT22;3755;59.316;18.092;2023-02-26T13:06:31;2.30;99.90
7427;DHT22;3755;59.316;18.092;2023-02-26T13:09:12;2.40;99.90
7427;DHT22;3755;59.316;18.092;2023-02-26T13:11:49;2.50;99.90
7427;DHT22;3755;59.316;18.092;2023-02-26T13:14:28;2.60;99.90
7427;DHT22;3755;59.316;18.092;2023-02-26T13:17:06;2.60;99.90
7427;DHT22;3755;59.316;18.092;2023-02-26T13:19:41;2.50;99.90
7427;DHT22;3755;59.316;18.092;2023-02-26T13:22:17;2.60;99.90
7427;DHT22;3755;59.316;18.092;2023-02-26T13:24:51;2.50;99.90
7427;DHT22;3755;59.316;18.092;2023-02-26T13:27:26;2.40;99.90
7427;DHT22;3755;59.316;18.092;2023-02-26T13:30:05;2.40;99.90
7427;DHT22;3755;59.316;18.092;2023-02-26T13:32:38;2.30;99.90
7427;DHT22;3755;59.316;18.092;2023-02-26T13:35:19;2.30;99.90
7427;DHT22;3755;59.316;18.092;2023-02-26T13:37:49;2.30;99.90
7427;DHT22;3755;59.316;18.092;2023-02-26T13:40:40;2.20;99.90
7427;DHT22;3755;59.316;18.092;2023-02-26T13:43:28;2.20;99.90
7427;DHT22;3755;59.316;18.092;2023-02-26T13:46:08;2.20;99.90
7427;DHT22;3755;59.316;18.092;2023-02-26T13:48:47;2.00;99.90
7427;DHT22;3755;59.316;18.092;2023-02-26T13:51:29;2.20;99.90
7427;DHT22;3755;59.316;18.092;2023-02-26T13:53:59;2.10;99.90
7427;DHT22;3755;59.316;18.092;2023-02-26T13:59:44;2.20;99.90
7427;DHT22;3755;59.316;18.092;2023-02-26T14:02:52;2.20;99.90
7427;DHT22;3755;59.316;18.092;2023-02-26T14:08:49;2.10;99.90
7427;DHT22;3755;59.316;18.092;2023-02-26T14:14:23;2.10;99.90
7427;DHT22;3755;59.316;18.092;2023-02-26T14:17:18;2.00;99.90
7427;DHT22;3755;59.316;18.092;2023-02-26T14:25:46;1.90;99.90
7427;DHT22;3755;59.316;18.092;2023-02-26T14:28:32;1.90;99.90
7427;DHT22;3755;59.316;18.092;2023-02-26T14:31:11;1.90;99.90
7427;DHT22;3755;59.316;18.092;2023-02-26T14:33:44;1.90;99.90
7427;DHT22;3755;59.316;18.092;2023-02-26T14:36:17;1.90;99.90
7427;DHT22;3755;59.316;18.092;2023-02-26T14:38:47;1.90;99.90
7427;DHT22;3755;59.316;18.092;2023-02-26T14:41:26;1.80;99.90
7427;DHT22;3755;59.316;18.092;2023-02-26T14:43:59;1.80;99.90
7427;DHT22;3755;59.316;18.092;2023-02-26T14:46:31;1.70;99.90
7427;DHT22;3755;59.316;18.092;2023-02-26T14:49:19;1.80;99.90
7427;DHT22;3755;59.316;18.092;2023-02-26T14:52:14;1.70;99.90
7427;DHT22;3755;59.316;18.092;2023-02-26T14:54:53;1.80;99.90
7427;DHT22;3755;59.316;18.092;2023-02-26T14:57:32;1.90;99.90
7427;DHT22;3755;59.316;18.092;2023-02-26T15:00:10;1.80;99.90
7427;DHT22;3755;59.316;18.092;2023-02-26T15:03:01;1.80;99.90
7427;DHT22;3755;59.316;18.092;2023-02-26T15:05:45;1.80;99.90
7427;DHT22;3755;59.316;18.092;2023-02-26T15:08:38;1.60;99.90
7427;DHT22;3755;59.316;18.092;2023-02-26T15:11:20;1.70;99.90
7427;DHT22;3755;59.316;18.092;2023-02-26T15:14:12;1.70;99.90
7427;DHT22;3755;59.316;18.092;2023-02-26T15:17:06;1.70;99.90
7427;DHT22;3755;59.316;18.092;2023-02-26T15:19:54;1.70;99.90
7427;DHT22;3755;59.316;18.092;2023-02-26T15:22:37;1.70;99.90
7427;DHT22;3755;59.316;18.092;2023-02-26T15:25:22;1.60;99.90
7427;DHT22;3755;59.316;18.092;2023-02-26T15:27:53;1.60;99.90
7427;DHT22;3755;59.316;18.092;2023-02-26T15:30:22;1.60;99.90
7427;DHT22;3755;59.316;18.092;2023-02-26T15:32:55;1.50;99.90
7427;DHT22;3755;59.316;18.092;2023-02-26T15:35:25;1.50;99.90
7427;DHT22;3755;59.316;18.092;2023-02-26T15:37:56;1.50;99.90
7427;DHT22;3755;59.316;18.092;2023-02-26T15:40:28;1.50;99.90
7427;DHT22;3755;59.316;18.092;2023-02-26T15:42:58;1.60;99.90
7427;DHT22;3755;59.316;18.092;2023-02-26T15:45:36;1.60;99.90
7427;DHT22;3755;59.316;18.092;2023-02-26T15:48:07;1.50;99.90
7427;DHT22;3755;59.316;18.092;2023-02-26T15:50:37;1.50;99.90
7427;DHT22;3755;59.316;18.092;2023-02-26T15:53:07;1.50;99.90
7427;DHT22;3755;59.316;18.092;2023-02-26T15:55:39;1.50;99.90
7427;DHT22;3755;59.316;18.092;2023-02-26T15:58:16;1.50;99.90
7427;DHT22;3755;59.316;18.092;2023-02-26T16:01:00;1.50;99.90
7427;DHT22;3755;59.316;18.092;2023-02-26T16:03:37;1.40;99.90
7427;DHT22;3755;59.316;18.092;2023-02-26T16:06:21;1.50;99.90
7427;DHT22;3755;59.316;18.092;2023-02-26T16:09:01;1.40;99.90
7427;DHT22;3755;59.316;18.092;2023-02-26T16:11:36;1.30;99.90
7427;DHT22;3755;59.316;18.092;2023-02-26T16:14:22;1.10;99.90
7427;DHT22;3755;59.316;18.092;2023-02-26T16:16:53;1.00;99.90
7427;DHT22;3755;59.316;18.092;2023-02-26T16:19:31;1.00;99.90
7427;DHT22;3755;59.316;18.092;2023-02-26T16:22:11;0.90;99.90
7427;DHT22;3755;59.316;18.092;2023-02-26T16:24:42;0.80;99.90
7427;DHT22;3755;59.316;18.092;2023-02-26T16:27:25;0.80;99.90
7427;DHT22;3755;59.316;18.092;2023-02-26T16:29:59;0.70;99.90
7427;DHT22;3755;59.316;18.092;2023-02-26T16:32:31;0.70;99.90
7427;DHT22;3755;59.316;18.092;2023-02-26T16:35:09;0.60;99.90
7427;DHT22;3755;59.316;18.092;2023-02-26T16:37:43;0.60;99.90
7427;DHT22;3755;59.316;18.092;2023-02-26T16:40:17;0.60;99.90
7427;DHT22;3755;59.316;18.092;2023-02-26T16:42:53;0.50;99.90
7427;DHT22;3755;59.316;18.092;2023-02-26T16:45:43;0.50;99.90
7427;DHT22;3755;59.316;18.092;2023-02-26T16:48:20;0.50;99.90
7427;DHT22;3755;59.316;18.092;2023-02-26T16:51:05;0.50;99.90
7427;DHT22;3755;59.316;18.092;2023-02-26T16:53:41;0.40;99.90
7427;DHT22;3755;59.316;18.092;2023-02-26T16:56:26;0.40;99.90